WIF27A ENSK-ENBO
Flight info
| Callsign | WIF27A |
|---|---|
| Flight time | 0h 21m |
| Altitude | 16000 |
| Route | UPUGU DCT OMAKI |
| Aircraft | DH8B/M-SDFGR/S |
Departure
| Time | 2026-05-04 17:44 |
|---|---|
| Airport | Stokmarknes Airport, Skagen (ENSK) |
Arrival
| Time | 2026-05-04 18:06 |
|---|---|
| Airport | Bodø Airport (ENBO) |
| Time | Latitude | Longitude | Altitude | Speed | Heading |
|---|---|---|---|---|---|
| 2026-05-04 17:38 | 68.57985 | 15.03086 | 18 ft | 0 kts | 90° |
| 2026-05-04 17:43 | 68.57985 | 15.03087 | 18 ft | 1 kts | 90° |
| 2026-05-04 17:43 | 68.58010 | 15.03203 | 18 ft | 12 kts | 359° |
| 2026-05-04 17:44 | 68.58071 | 15.03151 | 18 ft | 7 kts | 270° |
| 2026-05-04 17:44 | 68.58075 | 15.02776 | 16 ft | 74 kts | 271° |
| 2026-05-04 17:44 | 68.58099 | 15.00577 | 265 ft | 136 kts | 269° |
| 2026-05-04 17:44 | 68.57805 | 14.98087 | 935 ft | 152 kts | 229° |
| 2026-05-04 17:45 | 68.56814 | 14.97011 | 1707 ft | 167 kts | 178° |
| 2026-05-04 17:45 | 68.55658 | 14.97772 | 2492 ft | 174 kts | 168° |
| 2026-05-04 17:45 | 68.54443 | 14.98090 | 3283 ft | 178 kts | 186° |
| 2026-05-04 17:45 | 68.53196 | 14.97788 | 4103 ft | 182 kts | 187° |
| 2026-05-04 17:46 | 68.51905 | 14.97654 | 4821 ft | 193 kts | 184° |
| 2026-05-04 17:46 | 68.50516 | 14.97481 | 5416 ft | 205 kts | 187° |
| 2026-05-04 17:46 | 68.49081 | 14.97244 | 6030 ft | 213 kts | 185° |
| 2026-05-04 17:46 | 68.47581 | 14.97087 | 6633 ft | 218 kts | 185° |
| 2026-05-04 17:47 | 68.46060 | 14.96853 | 7245 ft | 221 kts | 186° |
| 2026-05-04 17:47 | 68.44535 | 14.96151 | 7867 ft | 222 kts | 195° |
| 2026-05-04 17:47 | 68.43015 | 14.95277 | 8484 ft | 224 kts | 192° |
| 2026-05-04 17:47 | 68.41485 | 14.94627 | 9108 ft | 226 kts | 191° |
| 2026-05-04 17:48 | 68.39921 | 14.93862 | 9707 ft | 229 kts | 193° |
| 2026-05-04 17:48 | 68.38347 | 14.93079 | 10278 ft | 230 kts | 193° |
| 2026-05-04 17:48 | 68.36758 | 14.92289 | 10852 ft | 233 kts | 192° |
| 2026-05-04 17:48 | 68.35142 | 14.91528 | 11436 ft | 236 kts | 192° |
| 2026-05-04 17:49 | 68.33538 | 14.90747 | 12018 ft | 238 kts | 192° |
| 2026-05-04 17:49 | 68.31899 | 14.89949 | 12611 ft | 240 kts | 192° |
| 2026-05-04 17:49 | 68.30248 | 14.89170 | 13212 ft | 241 kts | 192° |
| 2026-05-04 17:49 | 68.28600 | 14.88359 | 13762 ft | 243 kts | 192° |
| 2026-05-04 17:50 | 68.26925 | 14.87566 | 14299 ft | 245 kts | 191° |
| 2026-05-04 17:50 | 68.25234 | 14.86755 | 14854 ft | 247 kts | 192° |
| 2026-05-04 17:50 | 68.23534 | 14.85928 | 15398 ft | 249 kts | 191° |
| 2026-05-04 17:50 | 68.21772 | 14.85101 | 15541 ft | 265 kts | 191° |
| 2026-05-04 17:51 | 68.19905 | 14.84196 | 15566 ft | 278 kts | 191° |
| 2026-05-04 17:51 | 68.17984 | 14.83281 | 15577 ft | 287 kts | 192° |
| 2026-05-04 17:51 | 68.15996 | 14.82348 | 15578 ft | 293 kts | 192° |
| 2026-05-04 17:51 | 68.14015 | 14.81396 | 15569 ft | 281 kts | 192° |
| 2026-05-04 17:52 | 68.12105 | 14.80450 | 15561 ft | 276 kts | 193° |
| 2026-05-04 17:52 | 68.10242 | 14.79371 | 15554 ft | 270 kts | 194° |
| 2026-05-04 17:52 | 68.08425 | 14.78414 | 15555 ft | 268 kts | 192° |
| 2026-05-04 17:52 | 68.06599 | 14.77482 | 15555 ft | 265 kts | 194° |
| 2026-05-04 17:53 | 68.04794 | 14.76457 | 15553 ft | 264 kts | 193° |
| 2026-05-04 17:53 | 68.02992 | 14.75522 | 15551 ft | 263 kts | 192° |
| 2026-05-04 17:53 | 68.01208 | 14.74591 | 15546 ft | 263 kts | 194° |
| 2026-05-04 17:53 | 67.99417 | 14.73595 | 15542 ft | 263 kts | 193° |
| 2026-05-04 17:54 | 67.97615 | 14.72672 | 15393 ft | 262 kts | 193° |
| 2026-05-04 17:54 | 67.95831 | 14.71723 | 15124 ft | 260 kts | 194° |
| 2026-05-04 17:54 | 67.94064 | 14.70768 | 14854 ft | 258 kts | 193° |
| 2026-05-04 17:54 | 67.92325 | 14.69875 | 14582 ft | 256 kts | 193° |
| 2026-05-04 17:55 | 67.90582 | 14.68937 | 14327 ft | 255 kts | 194° |
| 2026-05-04 17:55 | 67.88841 | 14.68020 | 14068 ft | 254 kts | 193° |
| 2026-05-04 17:55 | 67.87104 | 14.67123 | 13785 ft | 253 kts | 194° |
| 2026-05-04 17:55 | 67.85396 | 14.66206 | 13525 ft | 253 kts | 194° |
| 2026-05-04 17:56 | 67.83666 | 14.65303 | 13255 ft | 253 kts | 194° |
| 2026-05-04 17:56 | 67.81936 | 14.64408 | 12941 ft | 253 kts | 194° |
| 2026-05-04 17:56 | 67.80189 | 14.63472 | 12389 ft | 256 kts | 194° |
| 2026-05-04 17:56 | 67.78446 | 14.62586 | 11853 ft | 253 kts | 194° |
| 2026-05-04 17:57 | 67.76726 | 14.61682 | 11320 ft | 250 kts | 194° |
| 2026-05-04 17:57 | 67.75042 | 14.60792 | 10798 ft | 249 kts | 194° |
| 2026-05-04 17:57 | 67.73348 | 14.59933 | 10282 ft | 247 kts | 194° |
| 2026-05-04 17:57 | 67.71663 | 14.59044 | 9769 ft | 245 kts | 195° |
| 2026-05-04 17:58 | 67.70008 | 14.58186 | 9241 ft | 240 kts | 194° |
| 2026-05-04 17:58 | 67.68379 | 14.57359 | 8673 ft | 236 kts | 194° |
| 2026-05-04 17:58 | 67.67315 | 14.56798 | 8314 ft | 234 kts | 194° |
| 2026-05-04 17:58 | 67.65726 | 14.55972 | 7765 ft | 232 kts | 194° |
| 2026-05-04 17:59 | 67.63646 | 14.54908 | 7046 ft | 228 kts | 194° |
| 2026-05-04 17:59 | 67.62599 | 14.54357 | 6792 ft | 223 kts | 194° |
| 2026-05-04 17:59 | 67.59657 | 14.52858 | 6205 ft | 212 kts | 195° |
| 2026-05-04 18:00 | 67.58218 | 14.52103 | 5903 ft | 209 kts | 194° |
| 2026-05-04 18:00 | 67.56793 | 14.51392 | 5588 ft | 208 kts | 194° |
| 2026-05-04 18:00 | 67.55317 | 14.50625 | 5296 ft | 225 kts | 195° |
| 2026-05-04 18:00 | 67.53733 | 14.49804 | 5046 ft | 237 kts | 193° |
| 2026-05-04 18:01 | 67.52111 | 14.49002 | 4830 ft | 243 kts | 193° |
| 2026-05-04 18:01 | 67.50441 | 14.48135 | 4637 ft | 245 kts | 194° |
| 2026-05-04 18:01 | 67.48778 | 14.47292 | 4631 ft | 240 kts | 193° |
| 2026-05-04 18:02 | 67.45624 | 14.45707 | 4406 ft | 233 kts | 191° |
| 2026-05-04 18:02 | 67.43977 | 14.45227 | 4159 ft | 241 kts | 187° |
| 2026-05-04 18:02 | 67.42300 | 14.44766 | 4039 ft | 240 kts | 190° |
| 2026-05-04 18:02 | 67.40657 | 14.44122 | 4007 ft | 236 kts | 190° |
| 2026-05-04 18:03 | 67.39047 | 14.43632 | 3989 ft | 234 kts | 188° |
| 2026-05-04 18:03 | 67.37424 | 14.43334 | 3913 ft | 235 kts | 184° |
| 2026-05-04 18:03 | 67.35776 | 14.43279 | 3780 ft | 237 kts | 182° |
| 2026-05-04 18:03 | 67.34119 | 14.43246 | 3519 ft | 230 kts | 182° |
| 2026-05-04 18:04 | 67.32665 | 14.43593 | 3098 ft | 199 kts | 169° |
| 2026-05-04 18:04 | 67.31385 | 14.44422 | 2646 ft | 177 kts | 167° |
| 2026-05-04 18:04 | 67.29098 | 14.46005 | 1541 ft | 162 kts | 171° |
| 2026-05-04 18:05 | 67.28062 | 14.45816 | 1204 ft | 145 kts | 206° |
| 2026-05-04 18:05 | 67.27439 | 14.44056 | 751 ft | 135 kts | 257° |
| 2026-05-04 18:05 | 67.27347 | 14.41656 | 336 ft | 132 kts | 261° |
| 2026-05-04 18:05 | 67.27165 | 14.39439 | 71 ft | 119 kts | 259° |
| 2026-05-04 18:06 | 67.26947 | 14.36789 | 38 ft | 29 kts | 258° |
| 2026-05-04 18:06 | 67.26942 | 14.36514 | 36 ft | 12 kts | 331° |
| 2026-05-04 18:06 | 67.27024 | 14.36474 | 39 ft | 11 kts | 10° |
| 2026-05-04 18:07 | 67.27061 | 14.36681 | 40 ft | 16 kts | 81° |
| 2026-05-04 18:07 | 67.27098 | 14.36941 | 42 ft | 12 kts | 17° |
| 2026-05-04 18:07 | 67.27151 | 14.36877 | 43 ft | 4 kts | 327° |
| 2026-05-04 18:07 | 67.27152 | 14.36876 | 43 ft | 0 kts | 327° |